Etusivu
METAR-TAF:

METAR-TAF

Lentoasemat :

Killeen, Texas, Yhdysvallat

Leveyspiiri: 31-05N, Pituuspiiri: 097-41W, korkeus merenpinnasta: 258 m

Tämänhetkinen sää

Tämä raportti tehtiin 23 minuuttia sitten, kello 01.07 UTC
Tuuli 11 kn luoteesta
Lämpötila 12°C
Kosteus 94%
Ilmanpaine 1016 hPa
Näkyvyys: 2.8 km
Hajonneita pilviä 600 ft:n korkeudessa
Pilvistä 1600 ft:n korkeudessa
utua

METAR: KILE 080107Z AUTO 32011KT 1 3/4SM BR BKN006 OVC016 12/11 A3001 RMK AO2 LTG DSNT N CIG 004V008 P0004

Aika: 19:30 (01:30 UTC)


TAF: puuttuu

Säähavainnot ja -ennusteet yli 4000 lentoasemalta (METAR- ja TAF-raportit).

Käytössä olevat sääasemat on merkitty karttaan keltaisilla ja punaisilla pisteillä.

Aseta hiiri pisteen päälle nähdäksesi sääaseman nimen.

Klikkaa sitten nähdäksesi säähavainnot ja -ennusteet.

Kartan vaihtaminen: klikkaa mustalla rastilla varustettuja vihreitä pisteitä, niin voit zoomata sisään; viivalla varustettua vihreää pistettä, niin voit zoomata ulos tai vihreitä nuolia, niin pääset viereisille kartoille.


METAR-TAF: